Speendrift — WDH5329 — position and weather

sailwx.info

Track history (hours):
 
Tides and Currents Weather Stations Pressure Air Temp Water Temp Dewpoint Dewpoint Depression Visibility Wind Speed Wind Dir Waves Ship Positions

Speendrift

Owner: Meek, Thomas O, Longview, WA. More information available from US FCC via Universal Licensing System and Coast Guard Vessel Documentation Center.

Last reported at 2018-Jun-25 08:00 UTC. Time now 2018-Jun-25 08:18 UTC.
Position N 46°10' W 123°03'.

Length 13 m.

Type: Sailing vessel. MMSI: 367626860.

Date/timePositionNaut miles runAvg speedWind from/ knotsBaromVisibWave heightAir tempDewpointWater temp
2018-Jun-25 08:00N 46°10' W 123°03'0 0.0
2018-Jun-25 07:30N 46°10' W 123°03'0 0.0
2018-Jun-25 06:57N 46°10' W 123°03'0 0.0
2018-Jun-25 06:27N 46°10' W 123°03'0 0.0
2018-Jun-25 05:51N 46°10' W 123°03'0 0.0
2018-Jun-25 05:27N 46°10' W 123°03'0 0.0
2018-Jun-25 05:00N 46°10' W 123°03'0 0.0
2018-Jun-25 04:29N 46°10' W 123°03'1 2.0
2018-Jun-25 04:00N 46°09' W 123°04'1 2.1
2018-Jun-25 03:28N 46°08' W 123°03'0 0.0
2018-Jun-25 02:57N 46°08' W 123°03'0 0.0
2018-Jun-25 02:30N 46°08' W 123°03'0 0.0
2018-Jun-25 01:54N 46°08' W 123°03'0 0.0
2018-Jun-25 00:56N 46°08' W 123°03'0 0.0
2018-Jun-25 00:29N 46°08' W 123°03'0 0.0
2018-Jun-24 23:59N 46°08' W 123°03'1 2.2
2018-Jun-24 23:30N 46°09' W 123°03'1 1.5
2018-Jun-24 22:58N 46°10' W 123°03'0 0.0
2018-Jun-24 22:22N 46°10' W 123°03'0 0.0
2018-Jun-24 21:59N 46°10' W 123°03'0 0.0
2018-Jun-24 21:26N 46°10' W 123°03'0 0.0
2018-Jun-24 20:50N 46°10' W 123°03'0 0.0
2018-Jun-24 20:29N 46°10' W 123°03'0 0.0
2018-Jun-24 19:53N 46°10' W 123°03'0 0.0
2018-Jun-24 19:29N 46°10' W 123°03'0 0.0
2018-Jun-24 18:58N 46°10' W 123°03'0 0.0
2018-Jun-24 18:22N 46°10' W 123°03'0 0.0
2018-Jun-24 17:58N 46°10' W 123°03'0 0.0
2018-Jun-24 17:30N 46°10' W 123°03'0 0.0
2018-Jun-24 16:59N 46°10' W 123°03'0 0.0
2018-Jun-24 16:29N 46°10' W 123°03'0 0.0
2018-Jun-24 15:56N 46°10' W 123°03'0 0.0
2018-Jun-24 15:28N 46°10' W 123°03'0 0.0
2018-Jun-24 14:55N 46°10' W 123°03'0 0.0
2018-Jun-24 14:25N 46°10' W 123°03'0 0.0
2018-Jun-24 13:55N 46°10' W 123°03'0 0.0
2018-Jun-24 13:29N 46°10' W 123°03'0 0.0
2018-Jun-24 12:59N 46°10' W 123°03'0 0.0
2018-Jun-24 12:30N 46°10' W 123°03'0 0.0
2018-Jun-24 11:55N 46°10' W 123°03'0 0.0
2018-Jun-24 11:29N 46°10' W 123°03'0 0.0
2018-Jun-24 10:59N 46°10' W 123°03'0 0.0
2018-Jun-24 10:29N 46°10' W 123°03'0 0.0
2018-Jun-24 09:56N 46°10' W 123°03'0 0.0
2018-Jun-24 09:26N 46°10' W 123°03'0 0.0
2018-Jun-24 08:59N 46°10' W 123°03'0 0.0
2018-Jun-24 08:29N 46°10' W 123°03'0 0.0
2018-Jun-24 07:59N 46°10' W 123°03'0 0.0
2018-Jun-24 07:29N 46°10' W 123°03'0 0.0
2018-Jun-24 06:42N 46°10' W 123°03'0 0.0
2018-Jun-24 06:20N 46°10' W 123°03'0 0.0
2018-Jun-24 05:56N 46°10' W 123°03'0 0.0
2018-Jun-24 05:26N 46°10' W 123°03'0 0.0
2018-Jun-24 04:59N 46°10' W 123°03'0 0.0
2018-Jun-24 04:26N 46°10' W 123°03'0 0.0
2018-Jun-24 03:57N 46°10' W 123°03'0 0.0
2018-Jun-24 03:27N 46°10' W 123°03'0 0.0
2018-Jun-24 02:48N 46°10' W 123°03'0 0.0
2018-Jun-24 02:11N 46°10' W 123°03'0 1.2
2018-Jun-24 02:00N 46°10' W 123°03'4 4.6
2018-Jun-24 01:12N 46°07' W 122°59'1 4.3
2018-Jun-24 00:59N 46°07' W 122°58'2 4.2
2018-Jun-24 00:30N 46°05' W 122°56'2 4.1
2018-Jun-24 00:00N 46°04' W 122°53'2 3.9
2018-Jun-23 23:30N 46°02' W 122°53'2 3.2
2018-Jun-23 22:47N 46°00' W 122°51'0 0.0
2018-Jun-23 22:23N 46°00' W 122°51'0 0.0
2018-Jun-23 21:59N 46°00' W 122°51'0 0.0
2018-Jun-23 21:23N 46°00' W 122°51'0 0.7
2018-Jun-23 21:01N 46°01' W 122°51'2 4.2
2018-Jun-23 20:31N 46°02' W 122°53'3 5.7
2018-Jun-23 20:00N 46°05' W 122°55'3 5.8
2018-Jun-23 19:30N 46°06' W 122°58'3 5.5
2018-Jun-23 19:00N 46°08' W 123°01'1 1.8
2018-Jun-23 18:28N 46°09' W 123°02'0 0.8
2018-Jun-23 17:59N 46°09' W 123°03'1 2.0
2018-Jun-23 17:29N 46°10' W 123°03'0 0.0
2018-Jun-23 16:59N 46°10' W 123°03'0 0.0
2018-Jun-23 16:26N 46°10' W 123°03'0 0.0
2018-Jun-23 15:56N 46°10' W 123°03'0 0.0
2018-Jun-23 15:26N 46°10' W 123°03'0 0.0
2018-Jun-23 14:50N 46°10' W 123°03'0 0.0
2018-Jun-23 14:26N 46°10' W 123°03'0 0.0
2018-Jun-23 13:50N 46°10' W 123°03'0 0.0
2018-Jun-23 13:11N 46°10' W 123°03'0 0.0
2018-Jun-23 12:47N 46°10' W 123°03'0 0.0
2018-Jun-23 12:29N 46°10' W 123°03'0 0.0
2018-Jun-23 11:56N 46°10' W 123°03'0 0.0
2018-Jun-23 11:20N 46°10' W 123°03'0 0.0
2018-Jun-23 10:56N 46°10' W 123°03'0 0.0
2018-Jun-23 10:29N 46°10' W 123°03'0 0.0
2018-Jun-23 09:59N 46°10' W 123°03'0 0.0
2018-Jun-23 09:29N 46°10' W 123°03'0 0.0
2018-Jun-23 08:59N 46°10' W 123°03'0 0.0
2018-Jun-23 08:26N 46°10' W 123°03'0 0.0
2018-Jun-23 07:53N 46°10' W 123°03'0 0.0
2018-Jun-23 07:26N 46°10' W 123°03'0 0.0
2018-Jun-23 06:59N 46°10' W 123°03'0 0.0
2018-Jun-23 06:26N 46°10' W 123°03'0 0.0
2018-Jun-23 05:59N 46°10' W 123°03'0 0.0
2018-Jun-23 05:26N 46°10' W 123°03'0 0.0
2018-Jun-23 04:59N 46°10' W 123°03'0 0.0
2018-Jun-23 04:17N 46°10' W 123°03'0 0.0
2018-Jun-23 03:53N 46°10' W 123°03'0 0.0
2018-Jun-23 03:29N 46°10' W 123°03'0 0.0
2018-Jun-23 02:29N 46°10' W 123°03'0 0.0
2018-Jun-23 01:29N 46°10' W 123°03'0 0.0
2018-Jun-23 00:59N 46°10' W 123°03'0 0.0
2018-Jun-23 00:29N 46°10' W 123°03'0 0.0
2018-Jun-22 23:59N 46°10' W 123°03'0 0.0
2018-Jun-22 23:23N 46°10' W 123°03'0 0.0
2018-Jun-22 22:59N 46°10' W 123°03'0 0.0
2018-Jun-22 22:29N 46°10' W 123°03'0 0.0
2018-Jun-22 21:59N 46°10' W 123°03'0 0.0
2018-Jun-22 21:30N 46°10' W 123°03'0 0.0
2018-Jun-22 21:00N 46°10' W 123°03'0 0.0
2018-Jun-22 20:25N 46°10' W 123°03'0 0.0
2018-Jun-22 19:58N 46°10' W 123°03'0 0.0
2018-Jun-22 19:30N 46°10' W 123°03'0 0.0
2018-Jun-22 19:00N 46°10' W 123°03'0 0.0
2018-Jun-22 18:27N 46°10' W 123°03'0 0.0
2018-Jun-22 18:00N 46°10' W 123°03'0 0.0
2018-Jun-22 17:30N 46°10' W 123°03'0 0.0
2018-Jun-22 17:01N 46°10' W 123°03'0 0.0
2018-Jun-22 16:30N 46°10' W 123°03'0 0.0
2018-Jun-22 15:57N 46°10' W 123°03'0 0.0
2018-Jun-22 15:24N 46°10' W 123°03'0 0.0
2018-Jun-22 14:57N 46°10' W 123°03'0 0.0
2018-Jun-22 14:30N 46°10' W 123°03'0 0.0
2018-Jun-22 14:00N 46°10' W 123°03'0 0.0
2018-Jun-22 13:30N 46°10' W 123°03'0 0.0
2018-Jun-22 12:57N 46°10' W 123°03'0 0.0
2018-Jun-22 12:03N 46°10' W 123°03'0 0.0
2018-Jun-22 12:00N 46°10' W 123°03'0 0.0
2018-Jun-22 11:30N 46°10' W 123°03'0 0.0
2018-Jun-22 11:00N 46°10' W 123°03'0 0.0
2018-Jun-22 10:30N 46°10' W 123°03'0 0.0
2018-Jun-22 09:51N 46°10' W 123°03'0 0.0
2018-Jun-22 09:30N 46°10' W 123°03'0 0.0
2018-Jun-22 08:57N 46°10' W 123°03'0 0.0
2018-Jun-22 08:15N 46°10' W 123°03'0 0.0
2018-Jun-22 08:00N 46°10' W 123°03'0 0.0
2018-Jun-22 07:30N 46°10' W 123°03'0 0.0
2018-Jun-22 06:51N 46°10' W 123°03'0 0.0
2018-Jun-22 06:15N 46°10' W 123°03'0 0.0
2018-Jun-22 05:42N 46°10' W 123°03'0 0.0
2018-Jun-22 05:24N 46°10' W 123°03'0 0.0
2018-Jun-22 05:00N 46°10' W 123°03'0 0.0
2018-Jun-22 04:30N 46°10' W 123°03'0 0.0
2018-Jun-22 04:00N 46°10' W 123°03'0 0.0
2018-Jun-22 03:27N 46°10' W 123°03'0 0.0
2018-Jun-22 03:00N 46°10' W 123°03'0 0.0
2018-Jun-22 02:24N 46°10' W 123°03'0 0.0
2018-Jun-22 02:00N 46°10' W 123°03'0 0.0
2018-Jun-22 01:30N 46°10' W 123°03'0 0.0
2018-Jun-22 00:57N 46°10' W 123°03'0 0.0
2018-Jun-22 00:29N 46°10' W 123°03'0 0.0
2018-Jun-21 23:59N 46°10' W 123°03'0 0.0
2018-Jun-21 23:29N 46°10' W 123°03'0 0.0
2018-Jun-21 22:59N 46°10' W 123°03'0 0.0
2018-Jun-21 22:29N 46°10' W 123°03'0 0.0
2018-Jun-21 21:46N 46°10' W 123°03'0 0.0
2018-Jun-21 21:28N 46°10' W 123°03'0 0.0
2018-Jun-21 20:58N 46°10' W 123°03'0 0.0
2018-Jun-21 20:28N 46°10' W 123°03'0 0.0
2018-Jun-21 19:29N 46°10' W 123°03'0 0.0
2018-Jun-21 18:58N 46°10' W 123°03'0 0.0
2018-Jun-21 18:25N 46°10' W 123°03'0 0.0
2018-Jun-21 17:58N 46°10' W 123°03'0 0.0
2018-Jun-21 17:25N 46°10' W 123°03'0 0.0
2018-Jun-21 16:58N 46°10' W 123°03'0 0.0
2018-Jun-21 16:28N 46°10' W 123°03'0 0.0
2018-Jun-21 15:58N 46°10' W 123°03'0 0.0
2018-Jun-21 15:28N 46°10' W 123°03'0 0.0
2018-Jun-21 14:58N 46°10' W 123°03'0 0.0
2018-Jun-21 14:22N 46°10' W 123°03'0 0.0
2018-Jun-21 13:55N 46°10' W 123°03'0 0.0
2018-Jun-21 13:25N 46°10' W 123°03'0 0.0
2018-Jun-21 12:55N 46°10' W 123°03'0 0.0
2018-Jun-21 12:28N 46°10' W 123°03'0 0.0
2018-Jun-21 11:43N 46°10' W 123°03'0 0.0
2018-Jun-21 11:07N 46°10' W 123°03'0 0.0
2018-Jun-21 10:58N 46°10' W 123°03'0 0.0
2018-Jun-21 10:28N 46°10' W 123°03'0 0.0
2018-Jun-21 09:58N 46°10' W 123°03'0 0.0
2018-Jun-21 09:28N 46°10' W 123°03'0 0.0
2018-Jun-21 08:46N 46°10' W 123°03'0 0.0
2018-Jun-21 08:28N 46°10' W 123°03'0 0.0
2018-Jun-21 07:55N 46°10' W 123°03'0 0.0
2018-Jun-21 07:28N 46°10' W 123°03'0 0.0
2018-Jun-21 06:58N 46°10' W 123°03'0 0.0
2018-Jun-21 06:28N 46°10' W 123°03'0 0.0
2018-Jun-21 05:42N 46°10' W 123°03'0 0.0
2018-Jun-21 05:30N 46°10' W 123°03'0 0.0
2018-Jun-21 04:51N 46°10' W 123°03'0 0.0
2018-Jun-21 04:30N 46°10' W 123°03'0 0.0
2018-Jun-21 04:00N 46°10' W 123°03'0 0.0
2018-Jun-20 21:14N 46°10' W 123°03'0 0.0
2018-Jun-20 19:08N 46°10' W 123°03'0 0.0
2018-Jun-20 18:08N 46°10' W 123°03'0 0.0
2018-Jun-20 17:56N 46°10' W 123°03'0 0.0
2018-Jun-20 17:08N 46°10' W 123°03'0 0.0
2018-Jun-20 16:12N 46°10' W 123°03'0 0.0
2018-Jun-20 15:51N 46°10' W 123°03'0 0.0
2018-Jun-20 15:03N 46°10' W 123°03'0 0.0
2018-Jun-20 14:55N 46°10' W 123°03'0 0.0
2018-Jun-20 14:19N 46°10' W 123°03'0 0.0
2018-Jun-20 14:00N 46°10' W 123°03'0 0.0
2018-Jun-20 13:30N 46°10' W 123°03'0 0.0
2018-Jun-20 12:02N 46°10' W 123°03'0 0.0
2018-Jun-20 11:45N 46°10' W 123°03'0 0.0
2018-Jun-20 11:24N 46°10' W 123°03'0 0.0
2018-Jun-20 10:20N 46°10' W 123°03'0 0.0
2018-Jun-20 09:56N 46°10' W 123°03'0 0.0
2018-Jun-20 09:20N 46°10' W 123°03'0 0.0
2018-Jun-20 08:58N 46°10' W 123°03'0 0.0
2018-Jun-20 08:28N 46°10' W 123°03'0 0.0
2018-Jun-20 08:00N 46°10' W 123°03'0 0.0
2018-Jun-20 07:30N 46°10' W 123°03'0 0.0
2018-Jun-20 06:57N 46°10' W 123°03'0 0.0
2018-Jun-20 05:30N 46°10' W 123°03'0 0.0
2018-Jun-20 05:00N 46°10' W 123°03'0 0.0
2018-Jun-20 04:30N 46°10' W 123°03'0 0.0
2018-Jun-20 04:00N 46°10' W 123°03'0 0.0
2018-Jun-20 03:18N 46°10' W 123°03'0 0.0
2018-Jun-20 03:00N 46°10' W 123°03'0 0.0
2018-Jun-20 02:29N 46°10' W 123°03'0 0.0
2018-Jun-20 01:59N 46°10' W 123°03'0 0.0
2018-Jun-20 01:26N 46°10' W 123°03'0 0.0
2018-Jun-20 00:59N 46°10' W 123°03'0 0.0
2018-Jun-20 00:17N 46°10' W 123°03'0 0.0
2018-Jun-19 23:59N 46°10' W 123°03'0 0.0
2018-Jun-19 23:23N 46°10' W 123°03'0 0.0
2018-Jun-19 22:59N 46°10' W 123°03'0 0.0
2018-Jun-19 22:26N 46°10' W 123°03'0 0.0
2018-Jun-19 21:59N 46°10' W 123°03'0 0.0
2018-Jun-19 21:08N 46°10' W 123°03'0 0.0
2018-Jun-19 20:47N 46°10' W 123°03'0 0.0
2018-Jun-19 20:26N 46°10' W 123°03'0 0.0
2018-Jun-19 19:47N 46°10' W 123°03'0 0.0
2018-Jun-19 19:29N 46°10' W 123°03'0 0.0
2018-Jun-19 18:59N 46°10' W 123°03'0 0.0
2018-Jun-19 18:28N 46°10' W 123°03'0 0.0
2018-Jun-19 17:43N 46°10' W 123°03'0 0.0
2018-Jun-19 17:25N 46°10' W 123°03'0 0.0
2018-Jun-19 16:58N 46°10' W 123°03'0 0.0
2018-Jun-19 15:58N 46°10' W 123°03'0 0.0
2018-Jun-19 15:13N 46°10' W 123°03'0 0.0
2018-Jun-19 14:58N 46°10' W 123°03'0 0.0
2018-Jun-19 13:40N 46°10' W 123°03'0 0.0
2018-Jun-19 13:28N 46°10' W 123°03'0 0.0
2018-Jun-19 12:55N 46°10' W 123°03'0 0.0
2018-Jun-19 12:28N 46°10' W 123°03'0 0.0
2018-Jun-19 11:58N 46°10' W 123°03'0 0.0
2018-Jun-19 11:28N 46°10' W 123°03'0 0.0
2018-Jun-19 10:58N 46°10' W 123°03'0 0.0
2018-Jun-19 10:28N 46°10' W 123°03'0 0.0
2018-Jun-19 09:52N 46°10' W 123°03'0 0.0
2018-Jun-19 09:28N 46°10' W 123°03'0 0.0
2018-Jun-19 08:58N 46°10' W 123°03'0 0.0
2018-Jun-19 08:28N 46°10' W 123°03'0 0.0
2018-Jun-19 07:58N 46°10' W 123°03'0 0.0
2018-Jun-19 07:28N 46°10' W 123°03'0 0.0
2018-Jun-19 06:49N 46°10' W 123°03'0 0.0
2018-Jun-19 06:25N 46°10' W 123°03'0 0.0
2018-Jun-19 05:58N 46°10' W 123°03'0 0.0
2018-Jun-19 05:28N 46°10' W 123°03'0 0.0
2018-Jun-19 04:55N 46°10' W 123°03'0 0.0
2018-Jun-19 04:25N 46°10' W 123°03'0 0.0
2018-Jun-19 03:58N 46°10' W 123°03'0 0.0
2018-Jun-19 03:27N 46°10' W 123°03'0 0.0
2018-Jun-19 03:00N 46°10' W 123°03'0 0.0
2018-Jun-19 02:30N 46°10' W 123°03'0 0.0
2018-Jun-19 02:00N 46°10' W 123°03'0 0.0
2018-Jun-19 01:30N 46°10' W 123°03'0 0.0
2018-Jun-19 01:00N 46°10' W 123°03'0 0.0
2018-Jun-19 00:27N 46°10' W 123°03'0 0.0
2018-Jun-18 23:48N 46°10' W 123°03'0 0.0
2018-Jun-18 23:30N 46°10' W 123°03'0 0.0
2018-Jun-18 22:57N 46°10' W 123°03'0 0.0
2018-Jun-18 22:30N 46°10' W 123°03'0 0.0
2018-Jun-18 21:57N 46°10' W 123°03'0 0.0
2018-Jun-18 21:24N 46°10' W 123°03'0 0.0
2018-Jun-18 20:56N 46°10' W 123°03'0 0.0
2018-Jun-18 20:29N 46°10' W 123°03'0 0.0
2018-Jun-18 19:59N 46°10' W 123°03'0 0.0
2018-Jun-18 19:29N 46°10' W 123°03'0 0.0
2018-Jun-18 18:59N 46°10' W 123°03'0 0.0
2018-Jun-18 18:26N 46°10' W 123°03'0 0.0
2018-Jun-18 17:20N 46°10' W 123°03'0 0.0
2018-Jun-18 16:50N 46°10' W 123°03'0 0.0
2018-Jun-18 16:29N 46°10' W 123°03'0 0.0
2018-Jun-18 15:59N 46°10' W 123°03'0 0.0
2018-Jun-18 15:26N 46°10' W 123°03'0 0.0
2018-Jun-18 14:59N 46°10' W 123°03'0 0.0
2018-Jun-18 14:29N 46°10' W 123°03'0 0.0
2018-Jun-18 13:56N 46°10' W 123°03'0 0.0
2018-Jun-18 13:29N 46°10' W 123°03'0 0.0
2018-Jun-18 12:56N 46°10' W 123°03'0 0.0
2018-Jun-18 12:29N 46°10' W 123°03'0 0.0
2018-Jun-18 11:59N 46°10' W 123°03'0 0.0
2018-Jun-18 11:23N 46°10' W 123°03'0 0.0
2018-Jun-18 10:59N 46°10' W 123°03'0 0.0
2018-Jun-18 10:29N 46°10' W 123°03'0 0.0
2018-Jun-18 09:59N 46°10' W 123°03'0 0.0
2018-Jun-18 09:17N 46°10' W 123°03'0 0.0
2018-Jun-18 08:59N 46°10' W 123°03'0 0.0
2018-Jun-18 08:26N 46°10' W 123°03'0 0.0
2018-Jun-18 07:47N 46°10' W 123°03'0 0.0
2018-Jun-18 07:29N 46°10' W 123°03'0 0.0
2018-Jun-18 06:56N 46°10' W 123°03'0 0.0
2018-Jun-18 06:29N 46°10' W 123°03'0 0.0
2018-Jun-18 05:56N 46°10' W 123°03'0 0.0
2018-Jun-18 05:29N 46°10' W 123°03'0 0.0
2018-Jun-18 04:59N 46°10' W 123°03'0 0.0
2018-Jun-18 04:29N 46°10' W 123°03'0 0.0
2018-Jun-18 03:59N 46°10' W 123°03'0 0.0
2018-Jun-18 03:29N 46°10' W 123°03'0 0.0
2018-Jun-18 02:59N 46°10' W 123°03'0 0.0
2018-Jun-18 02:04N 46°10' W 123°03'0 0.0
2018-Jun-18 01:43N 46°10' W 123°03'0 0.0
2018-Jun-18 01:28N 46°10' W 123°03'0 0.0
2018-Jun-18 00:58N 46°10' W 123°03'0 0.0
2018-Jun-18 00:25N 46°10' W 123°03'0 0.0
2018-Jun-17 23:58N 46°10' W 123°03'0 0.0
2018-Jun-17 23:28N 46°10' W 123°03'0 0.0
2018-Jun-17 22:43N 46°10' W 123°03'0 0.0
2018-Jun-17 22:28N 46°10' W 123°03'0 0.0
2018-Jun-17 21:58N 46°10' W 123°03'0 0.0
2018-Jun-17 20:13N 46°10' W 123°03'0 0.0
2018-Jun-17 19:58N 46°10' W 123°03'0 0.0
2018-Jun-17 19:22N 46°10' W 123°03'0 0.0
2018-Jun-17 18:52N 46°10' W 123°03'0 0.0
2018-Jun-17 18:22N 46°10' W 123°03'0 0.0
2018-Jun-17 17:52N 46°10' W 123°03'0 0.0
2018-Jun-17 17:25N 46°10' W 123°03'0 0.0
2018-Jun-17 16:52N 46°10' W 123°03'0 0.0
2018-Jun-17 16:28N 46°10' W 123°03'0 0.0
2018-Jun-17 15:55N 46°10' W 123°03'0 0.0
2018-Jun-17 15:28N 46°10' W 123°03'0 0.0
2018-Jun-17 14:55N 46°10' W 123°03'0 0.0
2018-Jun-17 14:28N 46°10' W 123°03'0 0.0
2018-Jun-17 13:58N 46°10' W 123°03'0 0.0
2018-Jun-17 13:28N 46°10' W 123°03'0 0.0
2018-Jun-17 12:58N 46°10' W 123°03'0 0.1
2018-Jun-17 12:25N 46°10' W 123°03'0 0.1
2018-Jun-17 11:58N 46°10' W 123°03'0 0.0
2018-Jun-17 11:28N 46°10' W 123°03'0 0.0
2018-Jun-17 11:00N 46°10' W 123°03'0 0.0
2018-Jun-17 10:29N 46°10' W 123°03'0 0.0
2018-Jun-17 09:44N 46°10' W 123°03'0 0.0
2018-Jun-17 09:26N 46°10' W 123°03'0 0.0
2018-Jun-17 08:56N 46°10' W 123°03'0 0.0
2018-Jun-17 08:26N 46°10' W 123°03'0 0.0
2018-Jun-17 07:59N 46°10' W 123°03'0 0.0
2018-Jun-17 07:29N 46°10' W 123°03'0 0.0
2018-Jun-17 06:59N 46°10' W 123°03'0 0.0
2018-Jun-17 06:29N 46°10' W 123°03'0 0.0
2018-Jun-17 05:41N 46°10' W 123°03'0 0.0
2018-Jun-17 05:29N 46°10' W 123°03'0 0.0
2018-Jun-17 04:50N 46°10' W 123°03'0 0.0
2018-Jun-17 04:29N 46°10' W 123°03'0 0.0
2018-Jun-17 03:59N 46°10' W 123°03'0 0.0
2018-Jun-17 03:23N 46°10' W 123°03'0 0.0
2018-Jun-17 02:59N 46°10' W 123°03'0 0.0
2018-Jun-17 02:29N 46°10' W 123°03'0 0.0
2018-Jun-17 01:59N 46°10' W 123°03'0 0.0
2018-Jun-17 01:20N 46°10' W 123°03'0 0.0
2018-Jun-17 00:59N 46°10' W 123°03'0 0.0
2018-Jun-17 00:29N 46°10' W 123°03'0 0.0
2018-Jun-16 23:59N 46°10' W 123°03'0 0.0
2018-Jun-16 23:26N 46°10' W 123°03'0 0.0
2018-Jun-16 22:59N 46°10' W 123°03'1 2.9
2018-Jun-16 22:30N 46°09' W 123°03'1 1.0
2018-Jun-16 21:58N 46°08' W 123°03'0 0.0
2018-Jun-16 21:30N 46°08' W 123°03'0 0.0
2018-Jun-16 21:00N 46°08' W 123°03'1 1.9
2018-Jun-16 20:30N 46°09' W 123°04'2 4.5
2018-Jun-16 20:00N 46°10' W 123°06'0 0.9
2018-Jun-16 19:28N 46°11' W 123°06'2 5.0
2018-Jun-16 19:00N 46°09' W 123°04'1 1.3
2018-Jun-16 18:24N 46°10' W 123°03'0 0.0
2018-Jun-16 18:00N 46°10' W 123°03'0 0.0
2018-Jun-16 17:27N 46°10' W 123°03'0 0.0
2018-Jun-16 16:51N 46°10' W 123°03'0 0.0
2018-Jun-16 16:30N 46°10' W 123°03'0 0.0
2018-Jun-16 16:00N 46°10' W 123°03'0 0.0
2018-Jun-16 15:30N 46°10' W 123°03'0 0.0
2018-Jun-16 15:00N 46°10' W 123°03'0 0.0
2018-Jun-16 14:21N 46°10' W 123°03'0 0.0
2018-Jun-16 14:00N 46°10' W 123°03'0 0.0
2018-Jun-16 13:27N 46°10' W 123°03'0 0.0
2018-Jun-16 12:54N 46°10' W 123°03'0 0.0
2018-Jun-16 12:30N 46°10' W 123°03'0 0.0
2018-Jun-16 11:53N 46°10' W 123°03'0 0.0
2018-Jun-16 11:29N 46°10' W 123°03'0 0.0
2018-Jun-16 10:59N 46°10' W 123°03'0 0.0
2018-Jun-16 10:29N 46°10' W 123°03'0 0.0
2018-Jun-16 09:56N 46°10' W 123°03'0 0.0
2018-Jun-16 09:29N 46°10' W 123°03'0 0.0
2018-Jun-16 08:59N 46°10' W 123°03'0 0.0
2018-Jun-16 08:26N 46°10' W 123°03'0 0.0
2018-Jun-16 07:59N 46°10' W 123°03'0 0.0
2018-Jun-16 07:23N 46°10' W 123°03'0 0.0
2018-Jun-16 06:59N 46°10' W 123°03'0 0.0
2018-Jun-16 06:26N 46°10' W 123°03'0 0.0
2018-Jun-16 05:59N 46°10' W 123°03'0 0.0
2018-Jun-16 05:23N 46°10' W 123°03'0 0.0
2018-Jun-16 04:59N 46°10' W 123°03'0 0.0
2018-Jun-16 04:26N 46°10' W 123°03'0 0.0
2018-Jun-16 03:50N 46°10' W 123°03'0 0.0
2018-Jun-16 03:29N 46°10' W 123°03'0 0.0
2018-Jun-16 02:59N 46°10' W 123°03'0 0.0
2018-Jun-16 02:26N 46°10' W 123°03'0 0.0
2018-Jun-16 01:53N 46°10' W 123°03'0 0.0
2018-Jun-16 01:29N 46°10' W 123°03'0 0.0
2018-Jun-16 00:59N 46°10' W 123°03'0 0.0
2018-Jun-16 00:29N 46°10' W 123°03'0 0.0
2018-Jun-16 00:00N 46°10' W 123°03'0 0.0
2018-Jun-15 23:24N 46°10' W 123°03'0 0.0
2018-Jun-15 22:57N 46°10' W 123°03'0 0.0
2018-Jun-15 22:24N 46°10' W 123°03'0 0.0
2018-Jun-15 21:57N 46°10' W 123°03'0 0.0
2018-Jun-15 21:27N 46°10' W 123°03'0 0.0
2018-Jun-15 21:00N 46°10' W 123°03'0 0.0
2018-Jun-15 20:30N 46°10' W 123°03'0 0.0
2018-Jun-15 20:00N 46°10' W 123°03'0 0.0
2018-Jun-15 19:21N 46°10' W 123°03'0 0.0
2018-Jun-15 18:57N 46°10' W 123°03'0 0.0
2018-Jun-15 18:24N 46°10' W 123°03'0 0.0
2018-Jun-15 18:00N 46°10' W 123°03'0 0.0
2018-Jun-15 17:24N 46°10' W 123°03'0 0.0
2018-Jun-15 17:00N 46°10' W 123°03'0 0.0
2018-Jun-15 16:24N 46°10' W 123°03'0 0.0
2018-Jun-15 15:48N 46°10' W 123°03'0 0.0
2018-Jun-15 15:27N 46°10' W 123°03'0 0.0
2018-Jun-15 15:00N 46°10' W 123°03'0 0.0
2018-Jun-15 14:30N 46°10' W 123°03'0 0.0
2018-Jun-15 13:57N 46°10' W 123°03'0 0.0
2018-Jun-15 13:30N 46°10' W 123°03'0 0.0
2018-Jun-15 13:00N 46°10' W 123°03'0 0.0
2018-Jun-15 12:27N 46°10' W 123°03'0 0.0
2018-Jun-15 11:49N 46°10' W 123°03'0 0.0
2018-Jun-15 11:28N 46°10' W 123°03'0 0.0
2018-Jun-15 10:55N 46°10' W 123°03'0 0.0
2018-Jun-15 10:28N 46°10' W 123°03'0 0.0
2018-Jun-15 09:37N 46°10' W 123°03'0 0.1
2018-Jun-15 09:31N 46°10' W 123°03'0 0.0
2018-Jun-15 08:58N 46°10' W 123°03'0 0.0
2018-Jun-15 08:31N 46°10' W 123°03'  
Track history (hours):
 
Tides and Currents Weather Stations Pressure Air Temp Water Temp Dewpoint Dewpoint Depression Visibility Wind Speed Wind Dir Waves Ship Positions

Speendrift

Owner: Meek, Thomas O, Longview, WA. More information available from US FCC via Universal Licensing System and Coast Guard Vessel Documentation Center.

Last reported at 2018-Jun-25 08:00 UTC. Time now 2018-Jun-25 08:18 UTC.
Position N 46°10' W 123°03'.

Length 13 m.

Type: Sailing vessel. MMSI: 367626860.

Date/timePositionNaut miles runAvg speedWind from/ knotsBaromVisibWave heightAir tempDewpointWater temp
2018-Jun-25 08:00N 46°10' W 123°03'0 0.0
2018-Jun-25 07:30N 46°10' W 123°03'0 0.0
2018-Jun-25 06:57N 46°10' W 123°03'0 0.0
2018-Jun-25 06:27N 46°10' W 123°03'0 0.0
2018-Jun-25 05:51N 46°10' W 123°03'0 0.0
2018-Jun-25 05:27N 46°10' W 123°03'0 0.0
2018-Jun-25 05:00N 46°10' W 123°03'0 0.0
2018-Jun-25 04:29N 46°10' W 123°03'1 2.0
2018-Jun-25 04:00N 46°09' W 123°04'1 2.1
2018-Jun-25 03:28N 46°08' W 123°03'0 0.0
2018-Jun-25 02:57N 46°08' W 123°03'0 0.0
2018-Jun-25 02:30N 46°08' W 123°03'0 0.0
2018-Jun-25 01:54N 46°08' W 123°03'0 0.0
2018-Jun-25 00:56N 46°08' W 123°03'0 0.0
2018-Jun-25 00:29N 46°08' W 123°03'0 0.0
2018-Jun-24 23:59N 46°08' W 123°03'1 2.2
2018-Jun-24 23:30N 46°09' W 123°03'1 1.5
2018-Jun-24 22:58N 46°10' W 123°03'0 0.0
2018-Jun-24 22:22N 46°10' W 123°03'0 0.0
2018-Jun-24 21:59N 46°10' W 123°03'0 0.0
2018-Jun-24 21:26N 46°10' W 123°03'0 0.0
2018-Jun-24 20:50N 46°10' W 123°03'0 0.0
2018-Jun-24 20:29N 46°10' W 123°03'0 0.0
2018-Jun-24 19:53N 46°10' W 123°03'0 0.0
2018-Jun-24 19:29N 46°10' W 123°03'0 0.0
2018-Jun-24 18:58N 46°10' W 123°03'0 0.0
2018-Jun-24 18:22N 46°10' W 123°03'0 0.0
2018-Jun-24 17:58N 46°10' W 123°03'0 0.0
2018-Jun-24 17:30N 46°10' W 123°03'0 0.0
2018-Jun-24 16:59N 46°10' W 123°03'0 0.0
2018-Jun-24 16:29N 46°10' W 123°03'0 0.0
2018-Jun-24 15:56N 46°10' W 123°03'0 0.0
2018-Jun-24 15:28N 46°10' W 123°03'0 0.0
2018-Jun-24 14:55N 46°10' W 123°03'0 0.0
2018-Jun-24 14:25N 46°10' W 123°03'0 0.0
2018-Jun-24 13:55N 46°10' W 123°03'0 0.0
2018-Jun-24 13:29N 46°10' W 123°03'0 0.0
2018-Jun-24 12:59N 46°10' W 123°03'0 0.0
2018-Jun-24 12:30N 46°10' W 123°03'0 0.0
2018-Jun-24 11:55N 46°10' W 123°03'0 0.0
2018-Jun-24 11:29N 46°10' W 123°03'0 0.0
2018-Jun-24 10:59N 46°10' W 123°03'0 0.0
2018-Jun-24 10:29N 46°10' W 123°03'0 0.0
2018-Jun-24 09:56N 46°10' W 123°03'0 0.0
2018-Jun-24 09:26N 46°10' W 123°03'0 0.0
2018-Jun-24 08:59N 46°10' W 123°03'0 0.0
2018-Jun-24 08:29N 46°10' W 123°03'0 0.0
2018-Jun-24 07:59N 46°10' W 123°03'0 0.0
2018-Jun-24 07:29N 46°10' W 123°03'0 0.0
2018-Jun-24 06:42N 46°10' W 123°03'0 0.0
2018-Jun-24 06:20N 46°10' W 123°03'0 0.0
2018-Jun-24 05:56N 46°10' W 123°03'0 0.0
2018-Jun-24 05:26N 46°10' W 123°03'0 0.0
2018-Jun-24 04:59N 46°10' W 123°03'0 0.0
2018-Jun-24 04:26N 46°10' W 123°03'0 0.0
2018-Jun-24 03:57N 46°10' W 123°03'0 0.0
2018-Jun-24 03:27N 46°10' W 123°03'0 0.0
2018-Jun-24 02:48N 46°10' W 123°03'0 0.0
2018-Jun-24 02:11N 46°10' W 123°03'0 1.2
2018-Jun-24 02:00N 46°10' W 123°03'4 4.6
2018-Jun-24 01:12N 46°07' W 122°59'1 4.3
2018-Jun-24 00:59N 46°07' W 122°58'2 4.2
2018-Jun-24 00:30N 46°05' W 122°56'2 4.1
2018-Jun-24 00:00N 46°04' W 122°53'2 3.9
2018-Jun-23 23:30N 46°02' W 122°53'2 3.2
2018-Jun-23 22:47N 46°00' W 122°51'0 0.0
2018-Jun-23 22:23N 46°00' W 122°51'0 0.0
2018-Jun-23 21:59N 46°00' W 122°51'0 0.0
2018-Jun-23 21:23N 46°00' W 122°51'0 0.7
2018-Jun-23 21:01N 46°01' W 122°51'2 4.2
2018-Jun-23 20:31N 46°02' W 122°53'3 5.7
2018-Jun-23 20:00N 46°05' W 122°55'3 5.8
2018-Jun-23 19:30N 46°06' W 122°58'3 5.5
2018-Jun-23 19:00N 46°08' W 123°01'1 1.8
2018-Jun-23 18:28N 46°09' W 123°02'0 0.8
2018-Jun-23 17:59N 46°09' W 123°03'1 2.0
2018-Jun-23 17:29N 46°10' W 123°03'0 0.0
2018-Jun-23 16:59N 46°10' W 123°03'0 0.0
2018-Jun-23 16:26N 46°10' W 123°03'0 0.0
2018-Jun-23 15:56N 46°10' W 123°03'0 0.0
2018-Jun-23 15:26N 46°10' W 123°03'0 0.0
2018-Jun-23 14:50N 46°10' W 123°03'0 0.0
2018-Jun-23 14:26N 46°10' W 123°03'0 0.0
2018-Jun-23 13:50N 46°10' W 123°03'0 0.0
2018-Jun-23 13:11N 46°10' W 123°03'0 0.0
2018-Jun-23 12:47N 46°10' W 123°03'0 0.0
2018-Jun-23 12:29N 46°10' W 123°03'0 0.0
2018-Jun-23 11:56N 46°10' W 123°03'0 0.0
2018-Jun-23 11:20N 46°10' W 123°03'0 0.0
2018-Jun-23 10:56N 46°10' W 123°03'0 0.0
2018-Jun-23 10:29N 46°10' W 123°03'0 0.0
2018-Jun-23 09:59N 46°10' W 123°03'0 0.0
2018-Jun-23 09:29N 46°10' W 123°03'0 0.0
2018-Jun-23 08:59N 46°10' W 123°03'0 0.0
2018-Jun-23 08:26N 46°10' W 123°03'0 0.0
2018-Jun-23 07:53N 46°10' W 123°03'0 0.0
2018-Jun-23 07:26N 46°10' W 123°03'0 0.0
2018-Jun-23 06:59N 46°10' W 123°03'0 0.0
2018-Jun-23 06:26N 46°10' W 123°03'0 0.0
2018-Jun-23 05:59N 46°10' W 123°03'0 0.0
2018-Jun-23 05:26N 46°10' W 123°03'0 0.0
2018-Jun-23 04:59N 46°10' W 123°03'0 0.0
2018-Jun-23 04:17N 46°10' W 123°03'0 0.0
2018-Jun-23 03:53N 46°10' W 123°03'0 0.0
2018-Jun-23 03:29N 46°10' W 123°03'0 0.0
2018-Jun-23 02:29N 46°10' W 123°03'0 0.0
2018-Jun-23 01:29N 46°10' W 123°03'0 0.0
2018-Jun-23 00:59N 46°10' W 123°03'0 0.0
2018-Jun-23 00:29N 46°10' W 123°03'0 0.0
2018-Jun-22 23:59N 46°10' W 123°03'0 0.0
2018-Jun-22 23:23N 46°10' W 123°03'0 0.0
2018-Jun-22 22:59N 46°10' W 123°03'0 0.0
2018-Jun-22 22:29N 46°10' W 123°03'0 0.0
2018-Jun-22 21:59N 46°10' W 123°03'0 0.0
2018-Jun-22 21:30N 46°10' W 123°03'0 0.0
2018-Jun-22 21:00N 46°10' W 123°03'0 0.0
2018-Jun-22 20:25N 46°10' W 123°03'0 0.0
2018-Jun-22 19:58N 46°10' W 123°03'0 0.0
2018-Jun-22 19:30N 46°10' W 123°03'0 0.0
2018-Jun-22 19:00N 46°10' W 123°03'0 0.0
2018-Jun-22 18:27N 46°10' W 123°03'0 0.0
2018-Jun-22 18:00N 46°10' W 123°03'0 0.0
2018-Jun-22 17:30N 46°10' W 123°03'0 0.0
2018-Jun-22 17:01N 46°10' W 123°03'0 0.0
2018-Jun-22 16:30N 46°10' W 123°03'0 0.0
2018-Jun-22 15:57N 46°10' W 123°03'0 0.0
2018-Jun-22 15:24N 46°10' W 123°03'0 0.0
2018-Jun-22 14:57N 46°10' W 123°03'0 0.0
2018-Jun-22 14:30N 46°10' W 123°03'0 0.0
2018-Jun-22 14:00N 46°10' W 123°03'0 0.0
2018-Jun-22 13:30N 46°10' W 123°03'0 0.0
2018-Jun-22 12:57N 46°10' W 123°03'0 0.0
2018-Jun-22 12:03N 46°10' W 123°03'0 0.0
2018-Jun-22 12:00N 46°10' W 123°03'0 0.0
2018-Jun-22 11:30N 46°10' W 123°03'0 0.0
2018-Jun-22 11:00N 46°10' W 123°03'0 0.0
2018-Jun-22 10:30N 46°10' W 123°03'0 0.0
2018-Jun-22 09:51N 46°10' W 123°03'0 0.0
2018-Jun-22 09:30N 46°10' W 123°03'0 0.0
2018-Jun-22 08:57N 46°10' W 123°03'0 0.0
2018-Jun-22 08:15N 46°10' W 123°03'0 0.0
2018-Jun-22 08:00N 46°10' W 123°03'0 0.0
2018-Jun-22 07:30N 46°10' W 123°03'0 0.0
2018-Jun-22 06:51N 46°10' W 123°03'0 0.0
2018-Jun-22 06:15N 46°10' W 123°03'0 0.0
2018-Jun-22 05:42N 46°10' W 123°03'0 0.0
2018-Jun-22 05:24N 46°10' W 123°03'0 0.0
2018-Jun-22 05:00N 46°10' W 123°03'0 0.0
2018-Jun-22 04:30N 46°10' W 123°03'0 0.0
2018-Jun-22 04:00N 46°10' W 123°03'0 0.0
2018-Jun-22 03:27N 46°10' W 123°03'0 0.0
2018-Jun-22 03:00N 46°10' W 123°03'0 0.0
2018-Jun-22 02:24N 46°10' W 123°03'0 0.0
2018-Jun-22 02:00N 46°10' W 123°03'0 0.0
2018-Jun-22 01:30N 46°10' W 123°03'0 0.0
2018-Jun-22 00:57N 46°10' W 123°03'0 0.0
2018-Jun-22 00:29N 46°10' W 123°03'0 0.0
2018-Jun-21 23:59N 46°10' W 123°03'0 0.0
2018-Jun-21 23:29N 46°10' W 123°03'0 0.0
2018-Jun-21 22:59N 46°10' W 123°03'0 0.0
2018-Jun-21 22:29N 46°10' W 123°03'0 0.0
2018-Jun-21 21:46N 46°10' W 123°03'0 0.0
2018-Jun-21 21:28N 46°10' W 123°03'0 0.0
2018-Jun-21 20:58N 46°10' W 123°03'0 0.0
2018-Jun-21 20:28N 46°10' W 123°03'0 0.0
2018-Jun-21 19:29N 46°10' W 123°03'0 0.0
2018-Jun-21 18:58N 46°10' W 123°03'0 0.0
2018-Jun-21 18:25N 46°10' W 123°03'0 0.0
2018-Jun-21 17:58N 46°10' W 123°03'0 0.0
2018-Jun-21 17:25N 46°10' W 123°03'0 0.0
2018-Jun-21 16:58N 46°10' W 123°03'0 0.0
2018-Jun-21 16:28N 46°10' W 123°03'0 0.0
2018-Jun-21 15:58N 46°10' W 123°03'0 0.0
2018-Jun-21 15:28N 46°10' W 123°03'0 0.0
2018-Jun-21 14:58N 46°10' W 123°03'0 0.0
2018-Jun-21 14:22N 46°10' W 123°03'0 0.0
2018-Jun-21 13:55N 46°10' W 123°03'0 0.0
2018-Jun-21 13:25N 46°10' W 123°03'0 0.0
2018-Jun-21 12:55N 46°10' W 123°03'0 0.0
2018-Jun-21 12:28N 46°10' W 123°03'0 0.0
2018-Jun-21 11:43N 46°10' W 123°03'0 0.0
2018-Jun-21 11:07N 46°10' W 123°03'0 0.0
2018-Jun-21 10:58N 46°10' W 123°03'0 0.0
2018-Jun-21 10:28N 46°10' W 123°03'0 0.0
2018-Jun-21 09:58N 46°10' W 123°03'0 0.0
2018-Jun-21 09:28N 46°10' W 123°03'0 0.0
2018-Jun-21 08:46N 46°10' W 123°03'0 0.0
2018-Jun-21 08:28N 46°10' W 123°03'0 0.0
2018-Jun-21 07:55N 46°10' W 123°03'0 0.0
2018-Jun-21 07:28N 46°10' W 123°03'0 0.0
2018-Jun-21 06:58N 46°10' W 123°03'0 0.0
2018-Jun-21 06:28N 46°10' W 123°03'0 0.0
2018-Jun-21 05:42N 46°10' W 123°03'0 0.0
2018-Jun-21 05:30N 46°10' W 123°03'0 0.0
2018-Jun-21 04:51N 46°10' W 123°03'0 0.0
2018-Jun-21 04:30N 46°10' W 123°03'0 0.0
2018-Jun-21 04:00N 46°10' W 123°03'0 0.0
2018-Jun-20 21:14N 46°10' W 123°03'0 0.0
2018-Jun-20 19:08N 46°10' W 123°03'0 0.0
2018-Jun-20 18:08N 46°10' W 123°03'0 0.0
2018-Jun-20 17:56N 46°10' W 123°03'0 0.0
2018-Jun-20 17:08N 46°10' W 123°03'0 0.0
2018-Jun-20 16:12N 46°10' W 123°03'0 0.0
2018-Jun-20 15:51N 46°10' W 123°03'0 0.0
2018-Jun-20 15:03N 46°10' W 123°03'0 0.0
2018-Jun-20 14:55N 46°10' W 123°03'0 0.0
2018-Jun-20 14:19N 46°10' W 123°03'0 0.0
2018-Jun-20 14:00N 46°10' W 123°03'0 0.0
2018-Jun-20 13:30N 46°10' W 123°03'0 0.0
2018-Jun-20 12:02N 46°10' W 123°03'0 0.0
2018-Jun-20 11:45N 46°10' W 123°03'0 0.0
2018-Jun-20 11:24N 46°10' W 123°03'0 0.0
2018-Jun-20 10:20N 46°10' W 123°03'0 0.0
2018-Jun-20 09:56N 46°10' W 123°03'0 0.0
2018-Jun-20 09:20N 46°10' W 123°03'0 0.0
2018-Jun-20 08:58N 46°10' W 123°03'0 0.0
2018-Jun-20 08:28N 46°10' W 123°03'0 0.0
2018-Jun-20 08:00N 46°10' W 123°03'0 0.0
2018-Jun-20 07:30N 46°10' W 123°03'0 0.0
2018-Jun-20 06:57N 46°10' W 123°03'0 0.0
2018-Jun-20 05:30N 46°10' W 123°03'0 0.0
2018-Jun-20 05:00N 46°10' W 123°03'0 0.0
2018-Jun-20 04:30N 46°10' W 123°03'0 0.0
2018-Jun-20 04:00N 46°10' W 123°03'0 0.0
2018-Jun-20 03:18N 46°10' W 123°03'0 0.0
2018-Jun-20 03:00N 46°10' W 123°03'0 0.0
2018-Jun-20 02:29N 46°10' W 123°03'0 0.0
2018-Jun-20 01:59N 46°10' W 123°03'0 0.0
2018-Jun-20 01:26N 46°10' W 123°03'0 0.0
2018-Jun-20 00:59N 46°10' W 123°03'0 0.0
2018-Jun-20 00:17N 46°10' W 123°03'0 0.0
2018-Jun-19 23:59N 46°10' W 123°03'0 0.0
2018-Jun-19 23:23N 46°10' W 123°03'0 0.0
2018-Jun-19 22:59N 46°10' W 123°03'0 0.0
2018-Jun-19 22:26N 46°10' W 123°03'0 0.0
2018-Jun-19 21:59N 46°10' W 123°03'0 0.0
2018-Jun-19 21:08N 46°10' W 123°03'0 0.0
2018-Jun-19 20:47N 46°10' W 123°03'0 0.0
2018-Jun-19 20:26N 46°10' W 123°03'0 0.0
2018-Jun-19 19:47N 46°10' W 123°03'0 0.0
2018-Jun-19 19:29N 46°10' W 123°03'0 0.0
2018-Jun-19 18:59N 46°10' W 123°03'0 0.0
2018-Jun-19 18:28N 46°10' W 123°03'0 0.0
2018-Jun-19 17:43N 46°10' W 123°03'0 0.0
2018-Jun-19 17:25N 46°10' W 123°03'0 0.0
2018-Jun-19 16:58N 46°10' W 123°03'0 0.0
2018-Jun-19 15:58N 46°10' W 123°03'0 0.0
2018-Jun-19 15:13N 46°10' W 123°03'0 0.0
2018-Jun-19 14:58N 46°10' W 123°03'0 0.0
2018-Jun-19 13:40N 46°10' W 123°03'0 0.0
2018-Jun-19 13:28N 46°10' W 123°03'0 0.0
2018-Jun-19 12:55N 46°10' W 123°03'0 0.0
2018-Jun-19 12:28N 46°10' W 123°03'0 0.0
2018-Jun-19 11:58N 46°10' W 123°03'0 0.0
2018-Jun-19 11:28N 46°10' W 123°03'0 0.0
2018-Jun-19 10:58N 46°10' W 123°03'0 0.0
2018-Jun-19 10:28N 46°10' W 123°03'0 0.0
2018-Jun-19 09:52N 46°10' W 123°03'0 0.0
2018-Jun-19 09:28N 46°10' W 123°03'0 0.0
2018-Jun-19 08:58N 46°10' W 123°03'0 0.0
2018-Jun-19 08:28N 46°10' W 123°03'0 0.0
2018-Jun-19 07:58N 46°10' W 123°03'0 0.0
2018-Jun-19 07:28N 46°10' W 123°03'0 0.0
2018-Jun-19 06:49N 46°10' W 123°03'0 0.0
2018-Jun-19 06:25N 46°10' W 123°03'0 0.0
2018-Jun-19 05:58N 46°10' W 123°03'0 0.0
2018-Jun-19 05:28N 46°10' W 123°03'0 0.0
2018-Jun-19 04:55N 46°10' W 123°03'0 0.0
2018-Jun-19 04:25N 46°10' W 123°03'0 0.0
2018-Jun-19 03:58N 46°10' W 123°03'0 0.0
2018-Jun-19 03:27N 46°10' W 123°03'0 0.0
2018-Jun-19 03:00N 46°10' W 123°03'0 0.0
2018-Jun-19 02:30N 46°10' W 123°03'0 0.0
2018-Jun-19 02:00N 46°10' W 123°03'0 0.0
2018-Jun-19 01:30N 46°10' W 123°03'0 0.0
2018-Jun-19 01:00N 46°10' W 123°03'0 0.0
2018-Jun-19 00:27N 46°10' W 123°03'0 0.0
2018-Jun-18 23:48N 46°10' W 123°03'0 0.0
2018-Jun-18 23:30N 46°10' W 123°03'0 0.0
2018-Jun-18 22:57N 46°10' W 123°03'0 0.0
2018-Jun-18 22:30N 46°10' W 123°03'0 0.0
2018-Jun-18 21:57N 46°10' W 123°03'0 0.0
2018-Jun-18 21:24N 46°10' W 123°03'0 0.0
2018-Jun-18 20:56N 46°10' W 123°03'0 0.0
2018-Jun-18 20:29N 46°10' W 123°03'0 0.0
2018-Jun-18 19:59N 46°10' W 123°03'0 0.0
2018-Jun-18 19:29N 46°10' W 123°03'0 0.0
2018-Jun-18 18:59N 46°10' W 123°03'0 0.0
2018-Jun-18 18:26N 46°10' W 123°03'0 0.0
2018-Jun-18 17:20N 46°10' W 123°03'0 0.0
2018-Jun-18 16:50N 46°10' W 123°03'0 0.0
2018-Jun-18 16:29N 46°10' W 123°03'0 0.0
2018-Jun-18 15:59N 46°10' W 123°03'0 0.0
2018-Jun-18 15:26N 46°10' W 123°03'0 0.0
2018-Jun-18 14:59N 46°10' W 123°03'0 0.0
2018-Jun-18 14:29N 46°10' W 123°03'0 0.0
2018-Jun-18 13:56N 46°10' W 123°03'0 0.0
2018-Jun-18 13:29N 46°10' W 123°03'0 0.0
2018-Jun-18 12:56N 46°10' W 123°03'0 0.0
2018-Jun-18 12:29N 46°10' W 123°03'0 0.0
2018-Jun-18 11:59N 46°10' W 123°03'0 0.0
2018-Jun-18 11:23N 46°10' W 123°03'0 0.0
2018-Jun-18 10:59N 46°10' W 123°03'0 0.0
2018-Jun-18 10:29N 46°10' W 123°03'0 0.0
2018-Jun-18 09:59N 46°10' W 123°03'0 0.0
2018-Jun-18 09:17N 46°10' W 123°03'0 0.0
2018-Jun-18 08:59N 46°10' W 123°03'0 0.0
2018-Jun-18 08:26N 46°10' W 123°03'0 0.0
2018-Jun-18 07:47N 46°10' W 123°03'0 0.0
2018-Jun-18 07:29N 46°10' W 123°03'0 0.0
2018-Jun-18 06:56N 46°10' W 123°03'0 0.0
2018-Jun-18 06:29N 46°10' W 123°03'0 0.0
2018-Jun-18 05:56N 46°10' W 123°03'0 0.0
2018-Jun-18 05:29N 46°10' W 123°03'0 0.0
2018-Jun-18 04:59N 46°10' W 123°03'0 0.0
2018-Jun-18 04:29N 46°10' W 123°03'0 0.0
2018-Jun-18 03:59N 46°10' W 123°03'0 0.0
2018-Jun-18 03:29N 46°10' W 123°03'0 0.0
2018-Jun-18 02:59N 46°10' W 123°03'0 0.0
2018-Jun-18 02:04N 46°10' W 123°03'0 0.0
2018-Jun-18 01:43N 46°10' W 123°03'0 0.0
2018-Jun-18 01:28N 46°10' W 123°03'0 0.0
2018-Jun-18 00:58N 46°10' W 123°03'0 0.0
2018-Jun-18 00:25N 46°10' W 123°03'0 0.0
2018-Jun-17 23:58N 46°10' W 123°03'0 0.0
2018-Jun-17 23:28N 46°10' W 123°03'0 0.0
2018-Jun-17 22:43N 46°10' W 123°03'0 0.0
2018-Jun-17 22:28N 46°10' W 123°03'0 0.0
2018-Jun-17 21:58N 46°10' W 123°03'0 0.0
2018-Jun-17 20:13N 46°10' W 123°03'0 0.0
2018-Jun-17 19:58N 46°10' W 123°03'0 0.0
2018-Jun-17 19:22N 46°10' W 123°03'0 0.0
2018-Jun-17 18:52N 46°10' W 123°03'0 0.0
2018-Jun-17 18:22N 46°10' W 123°03'0 0.0
2018-Jun-17 17:52N 46°10' W 123°03'0 0.0
2018-Jun-17 17:25N 46°10' W 123°03'0 0.0
2018-Jun-17 16:52N 46°10' W 123°03'0 0.0
2018-Jun-17 16:28N 46°10' W 123°03'0 0.0
2018-Jun-17 15:55N 46°10' W 123°03'0 0.0
2018-Jun-17 15:28N 46°10' W 123°03'0 0.0
2018-Jun-17 14:55N 46°10' W 123°03'0 0.0
2018-Jun-17 14:28N 46°10' W 123°03'0 0.0
2018-Jun-17 13:58N 46°10' W 123°03'0 0.0
2018-Jun-17 13:28N 46°10' W 123°03'0 0.0
2018-Jun-17 12:58N 46°10' W 123°03'0 0.1
2018-Jun-17 12:25N 46°10' W 123°03'0 0.1
2018-Jun-17 11:58N 46°10' W 123°03'0 0.0
2018-Jun-17 11:28N 46°10' W 123°03'0 0.0
2018-Jun-17 11:00N 46°10' W 123°03'0 0.0
2018-Jun-17 10:29N 46°10' W 123°03'0 0.0
2018-Jun-17 09:44N 46°10' W 123°03'0 0.0
2018-Jun-17 09:26N 46°10' W 123°03'0 0.0
2018-Jun-17 08:56N 46°10' W 123°03'0 0.0
2018-Jun-17 08:26N 46°10' W 123°03'0 0.0
2018-Jun-17 07:59N 46°10' W 123°03'0 0.0
2018-Jun-17 07:29N 46°10' W 123°03'0 0.0
2018-Jun-17 06:59N 46°10' W 123°03'0 0.0
2018-Jun-17 06:29N 46°10' W 123°03'0 0.0
2018-Jun-17 05:41N 46°10' W 123°03'0 0.0
2018-Jun-17 05:29N 46°10' W 123°03'0 0.0
2018-Jun-17 04:50N 46°10' W 123°03'0 0.0
2018-Jun-17 04:29N 46°10' W 123°03'0 0.0
2018-Jun-17 03:59N 46°10' W 123°03'0 0.0
2018-Jun-17 03:23N 46°10' W 123°03'0 0.0
2018-Jun-17 02:59N 46°10' W 123°03'0 0.0
2018-Jun-17 02:29N 46°10' W 123°03'0 0.0
2018-Jun-17 01:59N 46°10' W 123°03'0 0.0
2018-Jun-17 01:20N 46°10' W 123°03'0 0.0
2018-Jun-17 00:59N 46°10' W 123°03'0 0.0
2018-Jun-17 00:29N 46°10' W 123°03'0 0.0
2018-Jun-16 23:59N 46°10' W 123°03'0 0.0
2018-Jun-16 23:26N 46°10' W 123°03'0 0.0
2018-Jun-16 22:59N 46°10' W 123°03'1 2.9
2018-Jun-16 22:30N 46°09' W 123°03'1 1.0
2018-Jun-16 21:58N 46°08' W 123°03'0 0.0
2018-Jun-16 21:30N 46°08' W 123°03'0 0.0
2018-Jun-16 21:00N 46°08' W 123°03'1 1.9
2018-Jun-16 20:30N 46°09' W 123°04'2 4.5
2018-Jun-16 20:00N 46°10' W 123°06'0 0.9
2018-Jun-16 19:28N 46°11' W 123°06'2 5.0
2018-Jun-16 19:00N 46°09' W 123°04'1 1.3
2018-Jun-16 18:24N 46°10' W 123°03'0 0.0
2018-Jun-16 18:00N 46°10' W 123°03'0 0.0
2018-Jun-16 17:27N 46°10' W 123°03'0 0.0
2018-Jun-16 16:51N 46°10' W 123°03'0 0.0
2018-Jun-16 16:30N 46°10' W 123°03'0 0.0
2018-Jun-16 16:00N 46°10' W 123°03'0 0.0
2018-Jun-16 15:30N 46°10' W 123°03'0 0.0
2018-Jun-16 15:00N 46°10' W 123°03'0 0.0
2018-Jun-16 14:21N 46°10' W 123°03'0 0.0
2018-Jun-16 14:00N 46°10' W 123°03'0 0.0
2018-Jun-16 13:27N 46°10' W 123°03'0 0.0
2018-Jun-16 12:54N 46°10' W 123°03'0 0.0
2018-Jun-16 12:30N 46°10' W 123°03'0 0.0
2018-Jun-16 11:53N 46°10' W 123°03'0 0.0
2018-Jun-16 11:29N 46°10' W 123°03'0 0.0
2018-Jun-16 10:59N 46°10' W 123°03'0 0.0
2018-Jun-16 10:29N 46°10' W 123°03'0 0.0
2018-Jun-16 09:56N 46°10' W 123°03'0 0.0
2018-Jun-16 09:29N 46°10' W 123°03'0 0.0
2018-Jun-16 08:59N 46°10' W 123°03'0 0.0
2018-Jun-16 08:26N 46°10' W 123°03'0 0.0
2018-Jun-16 07:59N 46°10' W 123°03'0 0.0
2018-Jun-16 07:23N 46°10' W 123°03'0 0.0
2018-Jun-16 06:59N 46°10' W 123°03'0 0.0
2018-Jun-16 06:26N 46°10' W 123°03'0 0.0
2018-Jun-16 05:59N 46°10' W 123°03'0 0.0
2018-Jun-16 05:23N 46°10' W 123°03'0 0.0
2018-Jun-16 04:59N 46°10' W 123°03'0 0.0
2018-Jun-16 04:26N 46°10' W 123°03'0 0.0
2018-Jun-16 03:50N 46°10' W 123°03'0 0.0
2018-Jun-16 03:29N 46°10' W 123°03'0 0.0
2018-Jun-16 02:59N 46°10' W 123°03'0 0.0
2018-Jun-16 02:26N 46°10' W 123°03'0 0.0
2018-Jun-16 01:53N 46°10' W 123°03'0 0.0
2018-Jun-16 01:29N 46°10' W 123°03'0 0.0
2018-Jun-16 00:59N 46°10' W 123°03'0 0.0
2018-Jun-16 00:29N 46°10' W 123°03'0 0.0
2018-Jun-16 00:00N 46°10' W 123°03'0 0.0
2018-Jun-15 23:24N 46°10' W 123°03'0 0.0
2018-Jun-15 22:57N 46°10' W 123°03'0 0.0
2018-Jun-15 22:24N 46°10' W 123°03'0 0.0
2018-Jun-15 21:57N 46°10' W 123°03'0 0.0
2018-Jun-15 21:27N 46°10' W 123°03'0 0.0
2018-Jun-15 21:00N 46°10' W 123°03'0 0.0
2018-Jun-15 20:30N 46°10' W 123°03'0 0.0
2018-Jun-15 20:00N 46°10' W 123°03'0 0.0
2018-Jun-15 19:21N 46°10' W 123°03'0 0.0
2018-Jun-15 18:57N 46°10' W 123°03'0 0.0
2018-Jun-15 18:24N 46°10' W 123°03'0 0.0
2018-Jun-15 18:00N 46°10' W 123°03'0 0.0
2018-Jun-15 17:24N 46°10' W 123°03'0 0.0
2018-Jun-15 17:00N 46°10' W 123°03'0 0.0
2018-Jun-15 16:24N 46°10' W 123°03'0 0.0
2018-Jun-15 15:48N 46°10' W 123°03'0 0.0
2018-Jun-15 15:27N 46°10' W 123°03'0 0.0
2018-Jun-15 15:00N 46°10' W 123°03'0 0.0
2018-Jun-15 14:30N 46°10' W 123°03'0 0.0
2018-Jun-15 13:57N 46°10' W 123°03'0 0.0
2018-Jun-15 13:30N 46°10' W 123°03'0 0.0
2018-Jun-15 13:00N 46°10' W 123°03'0 0.0
2018-Jun-15 12:27N 46°10' W 123°03'0 0.0
2018-Jun-15 11:49N 46°10' W 123°03'0 0.0
2018-Jun-15 11:28N 46°10' W 123°03'0 0.0
2018-Jun-15 10:55N 46°10' W 123°03'0 0.0
2018-Jun-15 10:28N 46°10' W 123°03'0 0.0
2018-Jun-15 09:37N 46°10' W 123°03'0 0.1
2018-Jun-15 09:31N 46°10' W 123°03'0 0.0
2018-Jun-15 08:58N 46°10' W 123°03'0 0.0
2018-Jun-15 08:31N 46°10' W 123°03'  

Dump ship's entire track history